Time;durP1;ratioP1;P1;durP2;ratioP2;P2;SDS_P1;SDS_P2;PMS_P1;PMS_P2;Temp;Humidity;BMP_temperature;BMP_pressure;BME280_temperature;BME280_humidity;BME280_pressure;Samples;Min_cycle;Max_cycle;Signal;HPM_P1;HPM_P2
2023/12/27 00:00:15;;;;;;;137.35;83.53;;;3.80;99.90;;;;;;5078883;28;20076;-71
2023/12/27 00:02:42;;;;;;;149.15;86.47;;;3.80;99.90;;;;;;5073331;28;20040;-71
2023/12/27 00:05:10;;;;;;;161.05;91.10;;;3.90;99.90;;;;;;5059133;28;20462;-71
2023/12/27 00:07:54;;;;;;;152.55;90.13;;;3.80;99.90;;;;;;5066990;28;20012;-71
2023/12/27 00:10:22;;;;;;;148.20;87.70;;;3.80;99.90;;;;;;5074711;28;20041;-70
2023/12/27 00:12:50;;;;;;;143.57;85.50;;;3.80;99.90;;;;;;5066205;28;20049;-72
2023/12/27 00:15:17;;;;;;;142.88;84.88;;;3.70;99.90;;;;;;5075488;28;20120;-71
2023/12/27 00:17:51;;;;;;;136.10;83.03;;;3.80;99.90;;;;;;5078403;28;20399;-70
2023/12/27 00:20:19;;;;;;;137.73;82.47;;;3.90;99.90;;;;;;5070618;28;20033;-72
2023/12/27 00:22:46;;;;;;;142.48;83.05;;;3.80;99.90;;;;;;5063420;28;20558;-70
2023/12/27 00:25:14;;;;;;;131.25;82.70;;;3.80;99.90;;;;;;5061343;28;20033;-72
2023/12/27 00:27:41;;;;;;;129.15;78.45;;;3.70;99.90;;;;;;5070729;28;20048;-70
2023/12/27 00:30:09;;;;;;;129.88;78.35;;;3.60;99.90;;;;;;5069088;28;20047;-71
2023/12/27 00:32:36;;;;;;;135.50;79.60;;;3.50;99.90;;;;;;5073342;28;20064;-70
2023/12/27 00:35:04;;;;;;;135.50;81.68;;;3.70;99.90;;;;;;5074368;28;20050;-71
2023/12/27 00:37:31;;;;;;;135.48;81.43;;;3.80;99.90;;;;;;5065000;28;21722;-71
2023/12/27 00:39:59;;;;;;;114.90;67.30;;;3.80;99.90;;;;;;5073953;28;20085;-72
2023/12/27 00:42:26;;;;;;;113.30;67.03;;;3.90;99.90;;;;;;5073723;28;20090;-71
2023/12/27 00:44:54;;;;;;;127.35;75.85;;;4.00;99.90;;;;;;5079966;28;20036;-71
2023/12/27 00:47:21;;;;;;;109.85;63.13;;;3.80;99.90;;;;;;5076948;28;20043;-72
2023/12/27 00:49:48;;;;;;;120.68;66.97;;;3.70;99.90;;;;;;5072674;28;20033;-72
2023/12/27 00:52:15;;;;;;;126.97;72.97;;;3.70;99.90;;;;;;5075908;28;20030;-72
2023/12/27 00:54:43;;;;;;;135.32;78.53;;;3.80;99.90;;;;;;5075725;28;20376;-72
2023/12/27 00:57:10;;;;;;;138.63;81.00;;;3.80;99.90;;;;;;5072596;28;20059;-73
2023/12/27 00:59:37;;;;;;;122.32;76.10;;;3.80;99.90;;;;;;5070892;28;20471;-71
2023/12/27 01:02:06;;;;;;;132.32;77.82;;;3.60;99.90;;;;;;5074358;28;20390;-71
2023/12/27 01:04:33;;;;;;;126.18;76.28;;;3.50;99.90;;;;;;5075473;28;20033;-71
2023/12/27 01:07:01;;;;;;;131.65;76.38;;;3.50;99.90;;;;;;5076259;28;20039;-71
2023/12/27 01:09:28;;;;;;;125.15;72.68;;;3.10;99.90;;;;;;5075194;28;20090;-71
2023/12/27 01:11:55;;;;;;;123.78;71.80;;;3.10;99.90;;;;;;5081560;28;20089;-72
2023/12/27 01:14:23;;;;;;;122.47;71.13;;;3.20;99.90;;;;;;5073874;28;20378;-70
2023/12/27 01:16:50;;;;;;;115.95;70.60;;;3.20;99.90;;;;;;5079285;28;20131;-71
2023/12/27 01:19:19;;;;;;;118.22;70.72;;;3.30;99.90;;;;;;5073569;28;20032;-72
2023/12/27 01:21:46;;;;;;;113.38;64.03;;;3.40;99.90;;;;;;5078495;28;20044;-72
2023/12/27 01:24:13;;;;;;;108.50;63.75;;;3.50;99.90;;;;;;5080455;28;20059;-72
2023/12/27 01:26:41;;;;;;;94.88;60.42;;;3.60;99.90;;;;;;5076043;28;20055;-71
2023/12/27 01:29:44;;;;;;;111.47;63.28;;;3.60;99.90;;;;;;5071319;28;20063;-71
2023/12/27 01:32:12;;;;;;;119.25;68.03;;;3.60;99.90;;;;;;5077129;28;20032;-72
2023/12/27 01:34:39;;;;;;;113.07;66.57;;;3.40;99.90;;;;;;5067899;28;20074;-72
2023/12/27 01:37:07;;;;;;;123.78;67.00;;;3.40;99.90;;;;;;5078587;28;20048;-70
2023/12/27 01:39:34;;;;;;;129.05;71.32;;;3.60;99.90;;;;;;5079853;28;20045;-72
2023/12/27 01:42:01;;;;;;;121.05;73.53;;;3.60;99.90;;;;;;5078761;28;20047;-72
2023/12/27 01:44:29;;;;;;;126.35;74.03;;;3.30;99.90;;;;;;5079214;28;20394;-72
2023/12/27 01:46:57;;;;;;;135.18;76.93;;;3.40;99.90;;;;;;5064496;28;20044;-72
2023/12/27 01:49:24;;;;;;;127.47;75.57;;;3.40;99.90;;;;;;5078726;28;20086;-71
2023/12/27 01:51:52;;;;;;;123.45;72.57;;;3.50;99.90;;;;;;5079361;28;20043;-72
2023/12/27 01:54:19;;;;;;;121.68;70.30;;;3.40;99.90;;;;;;5077657;28;20466;-72
2023/12/27 01:56:47;;;;;;;127.65;72.93;;;3.20;99.90;;;;;;5073054;28;20032;-72
2023/12/27 01:59:14;;;;;;;111.95;71.55;;;3.40;99.90;;;;;;5076492;28;20068;-71
2023/12/27 02:01:42;;;;;;;102.20;65.35;;;3.40;99.90;;;;;;5073852;28;20048;-70
2023/12/27 02:04:09;;;;;;;110.18;66.47;;;3.50;99.90;;;;;;5079979;28;20048;-71
2023/12/27 02:06:37;;;;;;;110.18;65.95;;;3.30;99.90;;;;;;5081042;28;20071;-72
2023/12/27 02:09:05;;;;;;;119.35;68.57;;;3.10;99.90;;;;;;5080848;28;20094;-72
2023/12/27 02:11:32;;;;;;;108.47;65.60;;;3.10;99.90;;;;;;5082671;28;20360;-71
2023/12/27 02:14:00;;;;;;;106.93;64.90;;;3.00;99.90;;;;;;5079858;28;20028;-71
2023/12/27 02:16:27;;;;;;;120.50;68.45;;;3.00;99.90;;;;;;5082926;28;20068;-71
2023/12/27 02:18:55;;;;;;;114.10;64.57;;;2.70;99.90;;;;;;5084329;28;20029;-71
2023/12/27 02:21:25;;;;;;;117.65;67.15;;;2.80;99.90;;;;;;5082093;28;20360;-72
2023/12/27 02:23:55;;;;;;;105.20;63.83;;;2.90;99.90;;;;;;5084398;28;20032;-71
2023/12/27 02:26:23;;;;;;;104.97;65.28;;;2.90;99.90;;;;;;5082075;28;20038;-71
2023/12/27 02:28:50;;;;;;;100.00;60.60;;;3.10;99.90;;;;;;5080138;28;20111;-70
2023/12/27 02:31:17;;;;;;;110.43;66.65;;;3.20;99.90;;;;;;5081528;28;20119;-71
2023/12/27 02:33:45;;;;;;;111.63;64.43;;;3.20;99.90;;;;;;5072482;28;20060;-72
2023/12/27 02:36:13;;;;;;;120.57;68.38;;;3.20;99.90;;;;;;5075040;28;20111;-73
2023/12/27 02:38:40;;;;;;;110.82;63.85;;;2.90;99.90;;;;;;5083876;28;20032;-72
2023/12/27 02:41:07;;;;;;;104.93;61.90;;;2.90;99.90;;;;;;5081623;28;20033;-72
2023/12/27 02:43:34;;;;;;;115.60;65.78;;;2.80;99.90;;;;;;5081764;28;20170;-72
2023/12/27 02:46:02;;;;;;;115.82;65.07;;;3.00;99.90;;;;;;5084842;28;20123;-72
2023/12/27 02:48:29;;;;;;;109.28;61.60;;;3.00;99.90;;;;;;5080575;28;20076;-73
2023/12/27 02:50:56;;;;;;;101.82;63.00;;;3.00;99.90;;;;;;5082067;28;20123;-73
2023/12/27 02:53:43;;;;;;;109.88;63.35;;;3.00;99.90;;;;;;5074173;28;20879;-71
2023/12/27 02:56:10;;;;;;;108.88;63.22;;;3.10;99.90;;;;;;5082284;28;20109;-72
2023/12/27 02:58:39;;;;;;;109.40;63.83;;;2.80;99.90;;;;;;5081515;28;20479;-71
2023/12/27 03:01:07;;;;;;;112.70;64.55;;;2.70;99.90;;;;;;5083387;28;20094;-73
2023/12/27 03:03:35;;;;;;;108.22;62.67;;;2.80;99.90;;;;;;5081013;28;20032;-73
2023/12/27 03:06:02;;;;;;;98.80;59.67;;;2.90;99.90;;;;;;5079249;28;20044;-72
2023/12/27 03:08:30;;;;;;;100.95;59.78;;;3.00;99.90;;;;;;5080857;28;20468;-73
2023/12/27 03:10:58;;;;;;;110.90;62.63;;;2.80;99.90;;;;;;5081589;28;20569;-73
2023/12/27 03:13:25;;;;;;;107.07;62.08;;;2.80;99.90;;;;;;5081079;28;20047;-72
2023/12/27 03:15:52;;;;;;;101.82;60.90;;;2.60;99.90;;;;;;5082248;28;20510;-73
2023/12/27 03:18:38;;;;;;;94.50;56.17;;;2.70;99.90;;;;;;5082129;28;20467;-73
2023/12/27 03:21:07;;;;;;;98.43;54.60;;;2.50;99.90;;;;;;5081710;28;20484;-73
2023/12/27 03:23:35;;;;;;;98.82;56.15;;;2.50;99.90;;;;;;5081998;28;20041;-71
2023/12/27 03:26:02;;;;;;;103.70;63.25;;;2.60;99.90;;;;;;5081463;28;20112;-72
2023/12/27 03:28:29;;;;;;;99.80;63.88;;;2.30;99.90;;;;;;5079737;28;20046;-71
2023/12/27 03:30:57;;;;;;;106.25;62.67;;;2.10;99.90;;;;;;5082025;28;20115;-70
2023/12/27 03:33:24;;;;;;;108.20;60.67;;;2.10;99.90;;;;;;5080419;28;20029;-70
2023/12/27 03:36:09;;;;;;;102.93;59.22;;;2.40;99.90;;;;;;5081550;28;20017;-71
2023/12/27 03:38:36;;;;;;;100.95;59.55;;;2.70;99.90;;;;;;5081239;28;20078;-71
2023/12/27 03:41:04;;;;;;;99.40;59.20;;;2.70;99.90;;;;;;5082342;28;20033;-71
2023/12/27 03:43:31;;;;;;;98.03;58.97;;;2.70;99.90;;;;;;5081118;28;20601;-69
2023/12/27 03:45:59;;;;;;;91.93;53.28;;;2.70;99.90;;;;;;5082522;28;20504;-69
2023/12/27 03:48:26;;;;;;;108.60;61.17;;;2.70;99.90;;;;;;5080643;28;20033;-69
2023/12/27 03:50:53;;;;;;;99.38;59.70;;;2.50;99.90;;;;;;5080146;28;20439;-69
2023/12/27 03:53:21;;;;;;;109.97;64.47;;;2.60;99.90;;;;;;5080751;28;20035;-70
2023/12/27 03:55:48;;;;;;;105.97;61.30;;;2.80;99.90;;;;;;5081374;28;20035;-71
2023/12/27 03:58:15;;;;;;;109.40;61.75;;;2.60;99.90;;;;;;5075656;28;20085;-70
2023/12/27 04:00:42;;;;;;;102.00;59.80;;;2.60;99.90;;;;;;5077298;28;20490;-70
2023/12/27 04:03:10;;;;;;;106.80;61.50;;;2.50;99.90;;;;;;5082690;28;20036;-69
2023/12/27 04:05:37;;;;;;;108.32;62.15;;;2.70;99.90;;;;;;5078590;28;20033;-70
2023/12/27 04:08:05;;;;;;;96.82;60.83;;;2.70;99.90;;;;;;5079189;28;20040;-70
2023/12/27 04:10:32;;;;;;;104.63;61.85;;;2.60;99.90;;;;;;5077400;28;20042;-71
2023/12/27 04:13:00;;;;;;;94.68;58.83;;;2.70;99.90;;;;;;5081882;28;20067;-70
2023/12/27 04:15:27;;;;;;;97.28;60.47;;;2.50;99.90;;;;;;5078288;28;20079;-69
2023/12/27 04:17:54;;;;;;;100.90;59.78;;;2.40;99.90;;;;;;5081688;28;20086;-70
2023/12/27 04:20:22;;;;;;;93.00;58.95;;;2.40;99.90;;;;;;5078782;28;20348;-70
2023/12/27 04:22:49;;;;;;;99.60;58.65;;;2.10;99.90;;;;;;5080136;28;20044;-70
2023/12/27 04:25:17;;;;;;;103.07;62.15;;;2.30;99.90;;;;;;5076522;28;20456;-70
2023/12/27 04:27:44;;;;;;;86.75;57.85;;;2.10;99.90;;;;;;5077372;28;20039;-69
2023/12/27 04:30:29;;;;;;;101.80;58.53;;;2.10;99.90;;;;;;5080071;28;20332;-68
2023/12/27 04:32:56;;;;;;;96.30;58.70;;;2.40;99.90;;;;;;5078496;28;20059;-69
2023/12/27 04:35:24;;;;;;;89.47;54.63;;;2.60;99.90;;;;;;5076709;28;20386;-69
2023/12/27 04:37:51;;;;;;;87.57;51.33;;;2.50;99.90;;;;;;5083021;28;20032;-70
2023/12/27 04:40:18;;;;;;;86.03;49.08;;;2.50;99.90;;;;;;5075988;28;20027;-72
2023/12/27 04:42:45;;;;;;;87.85;53.45;;;2.30;99.90;;;;;;5079097;28;20036;-70
2023/12/27 04:45:13;;;;;;;95.28;53.65;;;2.30;99.90;;;;;;5079192;28;20027;-70
2023/12/27 04:47:41;;;;;;;77.80;47.30;;;2.00;99.90;;;;;;5079356;28;20125;-70
2023/12/27 04:50:09;;;;;;;85.80;50.97;;;1.90;99.90;;;;;;5080100;28;20036;-69
2023/12/27 04:52:37;;;;;;;69.70;40.95;;;2.00;99.90;;;;;;5079206;28;20041;-70
2023/12/27 04:55:04;;;;;;;64.72;40.88;;;2.20;99.90;;;;;;5081622;28;20109;-71
2023/12/27 04:57:32;;;;;;;73.72;46.90;;;2.30;99.90;;;;;;5081360;28;20036;-69
2023/12/27 04:59:59;;;;;;;87.07;50.63;;;2.30;99.90;;;;;;5079853;28;20036;-70
2023/12/27 05:02:27;;;;;;;86.95;55.35;;;2.40;99.90;;;;;;5077213;28;20036;-71
2023/12/27 05:04:54;;;;;;;87.65;54.67;;;2.30;99.90;;;;;;5081540;28;20060;-70
2023/12/27 05:07:21;;;;;;;97.80;57.63;;;2.50;99.90;;;;;;5074887;28;20167;-71
2023/12/27 05:09:48;;;;;;;91.53;55.00;;;2.30;99.90;;;;;;5078597;28;20052;-69
2023/12/27 05:12:16;;;;;;;96.05;55.40;;;2.40;99.90;;;;;;5084310;28;20508;-70
2023/12/27 05:14:44;;;;;;;96.25;56.72;;;2.50;99.90;;;;;;5078766;28;20490;-69
2023/12/27 05:17:11;;;;;;;90.03;55.60;;;2.50;99.90;;;;;;5081012;28;20386;-71
2023/12/27 05:19:39;;;;;;;86.57;54.13;;;2.30;99.90;;;;;;5080931;28;20441;-71
2023/12/27 05:22:06;;;;;;;102.53;55.70;;;2.40;99.90;;;;;;5078312;28;20111;-71
2023/12/27 05:24:33;;;;;;;90.95;57.28;;;2.50;99.90;;;;;;5078007;28;20099;-72
2023/12/27 05:27:01;;;;;;;91.28;54.28;;;2.40;99.90;;;;;;5077284;28;20089;-70
2023/12/27 05:29:28;;;;;;;85.40;49.15;;;2.40;99.90;;;;;;5077477;28;20356;-70
2023/12/27 05:31:56;;;;;;;83.10;46.40;;;2.30;99.90;;;;;;5076356;28;20063;-72
2023/12/27 05:34:23;;;;;;;80.22;48.15;;;2.10;99.90;;;;;;5081180;28;20059;-68
2023/12/27 05:36:50;;;;;;;80.50;47.83;;;2.20;99.90;;;;;;5079180;28;20029;-69
2023/12/27 05:39:35;;;;;;;79.18;48.80;;;2.40;99.90;;;;;;5078955;28;20020;-69
2023/12/27 05:42:03;;;;;;;85.63;50.72;;;2.50;99.90;;;;;;5074375;28;20029;-73
2023/12/27 05:44:30;;;;;;;82.25;52.15;;;2.50;99.90;;;;;;5077609;28;20043;-71
2023/12/27 05:46:58;;;;;;;89.88;53.30;;;2.40;99.90;;;;;;5074919;28;20364;-72
2023/12/27 05:49:25;;;;;;;91.95;54.15;;;2.50;99.90;;;;;;5081225;28;20502;-71
2023/12/27 05:51:53;;;;;;;87.57;53.25;;;2.50;99.90;;;;;;5077877;28;20392;-70
2023/12/27 05:54:20;;;;;;;89.22;52.85;;;2.40;99.90;;;;;;5081426;28;20436;-71
2023/12/27 05:56:49;;;;;;;89.25;53.47;;;2.40;99.90;;;;;;5070988;28;20112;-71
2023/12/27 05:59:17;;;;;;;90.10;53.38;;;2.30;99.90;;;;;;5076989;28;20116;-70
2023/12/27 06:01:52;;;;;;;91.80;55.72;;;2.00;99.90;;;;;;5074586;28;20060;-70
2023/12/27 06:04:20;;;;;;;82.10;50.63;;;2.00;99.90;;;;;;5070412;28;20033;-71
2023/12/27 06:06:52;;;;;;;131.23;71.40;;;2.10;99.90;;;;;;5077808;28;20042;-70
2023/12/27 06:09:20;;;;;;;79.20;50.88;;;2.30;99.90;;;;;;5072632;28;20430;-70
2023/12/27 06:11:47;;;;;;;91.18;53.00;;;2.40;99.90;;;;;;5076890;28;20039;-69
2023/12/27 06:14:15;;;;;;;80.85;50.30;;;2.30;99.90;;;;;;5081290;28;20037;-70
2023/12/27 06:16:43;;;;;;;91.65;53.10;;;2.40;99.90;;;;;;5077725;28;20084;-71
2023/12/27 06:19:10;;;;;;;88.55;52.08;;;2.30;99.90;;;;;;5078728;28;20032;-71
2023/12/27 06:21:38;;;;;;;196.75;103.80;;;2.40;99.90;;;;;;5075023;28;20086;-68
2023/12/27 06:24:05;;;;;;;175.13;95.78;;;2.50;99.90;;;;;;5067754;28;20042;-70
2023/12/27 06:26:33;;;;;;;119.53;66.65;;;2.40;99.90;;;;;;5077049;28;20028;-69
2023/12/27 06:29:00;;;;;;;86.82;54.40;;;2.50;99.90;;;;;;5078777;28;20028;-69
2023/12/27 06:31:29;;;;;;;90.68;54.88;;;2.50;99.90;;;;;;5076982;28;20433;-69
2023/12/27 06:33:56;;;;;;;85.80;53.22;;;2.70;99.90;;;;;;5076445;28;20074;-69
2023/12/27 06:36:23;;;;;;;80.47;49.78;;;2.80;99.90;;;;;;5077213;28;20467;-71
2023/12/27 06:38:51;;;;;;;67.13;45.00;;;2.80;99.90;;;;;;5073894;28;20035;-69
2023/12/27 06:41:18;;;;;;;83.68;50.00;;;2.80;99.90;;;;;;5068282;28;20123;-68
2023/12/27 06:43:45;;;;;;;87.80;51.83;;;2.60;99.90;;;;;;5076907;28;20050;-68
2023/12/27 06:46:13;;;;;;;88.55;54.50;;;2.50;99.90;;;;;;5072506;28;20029;-68
2023/12/27 06:48:40;;;;;;;85.47;54.83;;;2.50;99.90;;;;;;5077511;28;20479;-68
2023/12/27 06:51:07;;;;;;;93.45;56.30;;;2.50;99.90;;;;;;5063652;28;20021;-69
2023/12/27 06:53:36;;;;;;;170.50;90.47;;;2.60;99.90;;;;;;5076391;28;20045;-68
2023/12/27 06:56:03;;;;;;;103.35;61.67;;;2.80;99.90;;;;;;5074988;28;20055;-65
2023/12/27 06:58:30;;;;;;;96.72;54.88;;;2.80;99.90;;;;;;5064643;28;20052;-69
2023/12/27 07:00:58;;;;;;;85.15;53.72;;;3.00;99.90;;;;;;5075433;28;20054;-69
2023/12/27 07:03:25;;;;;;;91.80;55.38;;;3.00;99.90;;;;;;5083126;28;20115;-68
2023/12/27 07:05:53;;;;;;;99.05;56.10;;;2.70;99.90;;;;;;5065885;28;20381;-69
2023/12/27 07:08:21;;;;;;;93.10;54.63;;;2.80;99.90;;;;;;5078000;28;20050;-69
2023/12/27 07:10:48;;;;;;;95.82;60.72;;;3.00;99.90;;;;;;5080967;28;20032;-69
2023/12/27 07:13:15;;;;;;;92.53;58.58;;;3.00;99.90;;;;;;5083342;28;20434;-68
2023/12/27 07:15:42;;;;;;;93.88;57.20;;;2.90;99.90;;;;;;5072493;28;20059;-70
2023/12/27 07:18:10;;;;;;;91.43;57.35;;;2.90;99.90;;;;;;5078705;28;20052;-67
2023/12/27 07:20:37;;;;;;;99.07;61.97;;;3.10;99.90;;;;;;5079772;28;20032;-69
2023/12/27 07:23:05;;;;;;;89.45;58.65;;;3.30;99.90;;;;;;5078977;28;20036;-69
2023/12/27 07:25:32;;;;;;;103.63;59.92;;;3.50;99.90;;;;;;5082588;28;20097;-68
2023/12/27 07:28:16;;;;;;;99.97;58.10;;;3.70;99.90;;;;;;5083068;28;20035;-68
2023/12/27 07:30:44;;;;;;;100.57;57.65;;;3.50;99.90;;;;;;5074269;28;20029;-69
2023/12/27 07:33:15;;;;;;;93.72;59.75;;;3.60;99.90;;;;;;5075774;28;20063;-68
2023/12/27 07:35:45;;;;;;;80.65;52.33;;;3.90;99.90;;;;;;5078292;28;20033;-68
2023/12/27 07:38:12;;;;;;;87.65;54.00;;;3.70;99.90;;;;;;5077665;28;20799;-69
2023/12/27 07:40:44;;;;;;;76.40;50.58;;;3.70;99.90;;;;;;5079431;28;20114;-71
2023/12/27 07:43:11;;;;;;;78.28;47.95;;;3.70;99.90;;;;;;5079986;28;20426;-69
2023/12/27 07:45:39;;;;;;;99.28;56.67;;;3.90;99.90;;;;;;5081360;28;20037;-68
2023/12/27 07:48:24;;;;;;;92.97;58.53;;;3.90;99.90;;;;;;5078923;28;20028;-68
2023/12/27 07:50:51;;;;;;;90.50;58.00;;;4.00;99.90;;;;;;5082469;28;20032;-69
2023/12/27 07:53:18;;;;;;;85.55;54.03;;;4.10;99.90;;;;;;5079610;28;20040;-68
2023/12/27 07:55:46;;;;;;;81.22;52.80;;;4.30;99.90;;;;;;5080112;28;20421;-69
2023/12/27 07:58:13;;;;;;;73.85;50.63;;;4.30;99.90;;;;;;5074554;28;20036;-69
2023/12/27 08:00:40;;;;;;;79.88;49.83;;;4.10;99.90;;;;;;5080451;28;20464;-68
2023/12/27 08:03:08;;;;;;;71.40;47.85;;;4.40;99.90;;;;;;5080590;28;20092;-67
2023/12/27 08:05:36;;;;;;;75.65;48.63;;;4.60;99.90;;;;;;5082269;28;20507;-71
2023/12/27 08:08:04;;;;;;;74.05;46.47;;;4.80;99.90;;;;;;5079982;28;20450;-68
2023/12/27 08:10:31;;;;;;;66.35;45.75;;;4.80;99.90;;;;;;5078207;28;20040;-67
2023/12/27 08:13:00;;;;;;;69.07;44.42;;;4.70;99.90;;;;;;5082665;28;20064;-68
2023/12/27 08:15:27;;;;;;;71.68;45.28;;;4.60;99.90;;;;;;5079498;28;20065;-68
2023/12/27 08:17:54;;;;;;;68.25;44.95;;;4.50;99.90;;;;;;5079200;28;20321;-68
2023/12/27 08:20:22;;;;;;;65.32;44.08;;;4.60;99.90;;;;;;5075298;28;20045;-67
2023/12/27 08:22:52;;;;;;;66.50;43.17;;;4.90;99.90;;;;;;5070729;28;20043;-69
2023/12/27 08:25:38;;;;;;;62.97;42.92;;;5.20;99.90;;;;;;5078632;28;20134;-68
2023/12/27 08:28:08;;;;;;;71.78;44.25;;;5.60;99.90;;;;;;5083238;28;20115;-68
2023/12/27 08:30:53;;;;;;;65.68;43.75;;;5.80;99.90;;;;;;5077158;28;20355;-68
2023/12/27 08:33:20;;;;;;;71.25;41.65;;;5.90;99.90;;;;;;5077937;28;20063;-68
2023/12/27 08:35:48;;;;;;;64.05;41.28;;;6.10;99.90;;;;;;5076705;28;20028;-69
2023/12/27 08:38:15;;;;;;;68.18;43.97;;;6.20;99.90;;;;;;5078052;28;20052;-68
2023/12/27 08:40:42;;;;;;;69.00;43.63;;;6.40;99.90;;;;;;5078619;28;20114;-69
2023/12/27 08:43:10;;;;;;;69.85;44.10;;;6.30;99.90;;;;;;5079562;28;20127;-69
2023/12/27 08:45:37;;;;;;;69.68;46.35;;;6.30;99.90;;;;;;5079897;28;20438;-67
2023/12/27 08:48:06;;;;;;;67.32;45.33;;;6.60;99.90;;;;;;5080478;28;20063;-69
2023/12/27 08:50:34;;;;;;;67.68;45.25;;;6.80;99.90;;;;;;5075442;28;20111;-69
2023/12/27 08:53:01;;;;;;;78.15;50.10;;;6.80;99.90;;;;;;5077312;28;20059;-69
2023/12/27 08:55:29;;;;;;;73.38;48.85;;;6.80;99.90;;;;;;5075003;28;20094;-69
2023/12/27 08:57:56;;;;;;;72.43;49.33;;;6.90;99.90;;;;;;5084230;28;20059;-70
2023/12/27 09:00:24;;;;;;;79.43;49.03;;;7.10;99.90;;;;;;5076091;28;20391;-69
2023/12/27 09:02:51;;;;;;;76.63;48.30;;;7.10;99.90;;;;;;5077715;28;20039;-70
2023/12/27 09:05:19;;;;;;;75.40;49.85;;;7.10;99.90;;;;;;5080768;28;20024;-68
2023/12/27 09:07:46;;;;;;;79.10;49.88;;;7.10;99.90;;;;;;5076413;28;20048;-67
2023/12/27 09:10:14;;;;;;;77.90;50.33;;;7.00;99.90;;;;;;5078206;28;20443;-68
2023/12/27 09:12:41;;;;;;;86.13;52.50;;;7.30;99.90;;;;;;5080637;28;20036;-69
2023/12/27 09:15:09;;;;;;;79.68;50.25;;;7.60;99.90;;;;;;5072522;28;20068;-68
2023/12/27 09:17:37;;;;;;;74.85;46.63;;;7.30;99.90;;;;;;5075886;28;20047;-70
2023/12/27 09:20:07;;;;;;;73.80;48.55;;;7.70;99.90;;;;;;5060374;28;20056;-67
2023/12/27 09:22:35;;;;;;;69.55;46.38;;;8.00;99.90;;;;;;5073448;28;20036;-68
2023/12/27 09:25:06;;;;;;;73.20;47.45;;;8.20;99.90;;;;;;5076629;28;20032;-69
2023/12/27 09:27:33;;;;;;;;;;;8.30;99.90;;;;;;5080004;28;20036;-70
2023/12/27 09:30:00;;;;;;;79.25;46.53;;;7.70;99.90;;;;;;5075881;28;20003;-69
2023/12/27 09:32:28;;;;;;;75.20;47.33;;;7.30;99.90;;;;;;5075657;28;20047;-70
2023/12/27 09:34:56;;;;;;;75.47;49.10;;;7.80;99.90;;;;;;5080196;28;20383;-68
2023/12/27 09:37:23;;;;;;;77.07;49.28;;;8.20;99.90;;;;;;5068063;28;20421;-70
2023/12/27 09:39:50;;;;;;;83.65;52.13;;;8.40;99.90;;;;;;5078516;28;20040;-69
2023/12/27 09:42:17;;;;;;;81.63;50.17;;;8.50;99.90;;;;;;5075955;28;20071;-69
2023/12/27 09:44:48;;;;;;;85.07;49.80;;;8.80;99.90;;;;;;5078705;28;20047;-70
2023/12/27 09:47:17;;;;;;;74.10;49.10;;;9.10;99.90;;;;;;5080249;28;20032;-71
2023/12/27 09:50:03;;;;;;;76.45;50.47;;;9.40;99.90;;;;;;5076248;28;20012;-70
2023/12/27 09:52:33;;;;;;;70.18;46.50;;;9.60;99.90;;;;;;5074732;28;20031;-72
2023/12/27 09:55:02;;;;;;;72.27;46.67;;;9.70;99.90;;;;;;5077225;28;20144;-70
2023/12/27 09:57:31;;;;;;;72.47;46.33;;;9.60;99.90;;;;;;5079713;28;20028;-69
2023/12/27 09:59:59;;;;;;;73.55;46.17;;;9.70;99.90;;;;;;5075480;28;20042;-69
2023/12/27 10:02:31;;;;;;;71.97;44.80;;;9.90;99.90;;;;;;5078287;28;20131;-70
2023/12/27 10:05:26;;;;;;;70.70;45.63;;;10.30;99.70;;;;;;5074606;28;20028;-69
2023/12/27 10:07:56;;;;;;;66.32;43.63;;;10.60;99.20;;;;;;5073050;28;20099;-70
2023/12/27 10:10:26;;;;;;;68.57;44.35;;;10.70;98.90;;;;;;5075848;28;20043;-71
2023/12/27 10:12:56;;;;;;;76.47;45.60;;;10.70;98.30;;;;;;5077366;28;20032;-71
2023/12/27 10:15:23;;;;;;;80.28;47.05;;;10.70;98.00;;;;;;5074795;28;20047;-70
2023/12/27 10:17:51;;;;;;;75.90;46.50;;;10.20;98.70;;;;;;5080736;28;20111;-71
2023/12/27 10:20:33;;;;;;;80.35;47.28;;;10.20;99.00;;;;;;5083217;28;20047;-72
2023/12/27 10:23:01;;;;;;;73.07;45.85;;;10.50;98.40;;;;;;5075257;28;20036;-70
2023/12/27 10:25:29;;;;;;;77.68;46.50;;;10.60;98.80;;;;;;5077270;28;20483;-70
2023/12/27 10:27:57;;;;;;;72.28;46.45;;;10.60;98.00;;;;;;5082190;28;20387;-71
2023/12/27 10:30:24;;;;;;;73.32;47.17;;;10.80;98.20;;;;;;5082149;28;20032;-71
2023/12/27 10:32:59;;;;;;;71.43;46.08;;;11.20;97.50;;;;;;5082221;28;20032;-75
2023/12/27 10:35:28;;;;;;;74.20;46.40;;;10.80;98.00;;;;;;5078363;28;20101;-75
2023/12/27 10:38:03;;;;;;;82.45;47.67;;;10.80;98.40;;;;;;5082182;28;20494;-74
2023/12/27 10:40:30;;;;;;;79.40;47.45;;;11.80;99.20;;;;;;5080441;28;20040;-75
2023/12/27 10:42:58;;;;;;;93.28;51.58;;;12.80;97.00;;;;;;5084235;28;20111;-75
2023/12/27 10:45:25;;;;;;;105.05;55.63;;;13.10;95.20;;;;;;5092257;28;20422;-73
2023/12/27 10:48:01;;;;;;;102.05;54.05;;;13.00;94.40;;;;;;5074394;28;20447;-75
2023/12/27 10:50:30;;;;;;;98.55;54.17;;;12.70;95.70;;;;;;5080241;28;20055;-74
2023/12/27 10:53:08;;;;;;;88.07;50.40;;;13.30;93.40;;;;;;5077191;28;20036;-73
2023/12/27 10:55:55;;;;;;;93.57;52.15;;;13.80;94.30;;;;;;5068349;28;20471;-75
2023/12/27 10:58:24;;;;;;;86.13;50.73;;;14.70;92.70;;;;;;5076148;28;20112;-72
2023/12/27 11:00:54;;;;;;;79.55;48.25;;;15.60;91.80;;;;;;5079942;28;20025;-71
2023/12/27 11:03:23;;;;;;;85.27;49.53;;;16.30;90.60;;;;;;5083924;28;20036;-73
2023/12/27 11:05:51;;;;;;;73.13;48.03;;;17.50;85.40;;;;;;5067843;28;20489;-74
2023/12/27 11:08:20;;;;;;;74.80;47.70;;;17.60;83.10;;;;;;5081157;28;20065;-74
2023/12/27 11:10:49;;;;;;;71.38;45.83;;;21.20;72.70;;;;;;5079374;28;20479;-76
2023/12/27 11:13:19;;;;;;;78.88;49.78;;;23.50;64.80;;;;;;5080282;28;20045;-73
2023/12/27 11:15:50;;;;;;;70.45;49.95;;;25.00;59.10;;;;;;5080801;28;20491;-74
2023/12/27 11:18:21;;;;;;;71.88;51.47;;;24.70;56.10;;;;;;5082595;28;20068;-76
2023/12/27 11:20:51;;;;;;;75.10;53.35;;;25.20;55.20;;;;;;5080336;28;20040;-72
2023/12/27 11:23:20;;;;;;;73.32;54.53;;;25.30;54.40;;;;;;5074550;28;20076;-72
2023/12/27 11:25:47;;;;;;;78.80;54.60;;;24.20;54.20;;;;;;5085994;28;20044;-76
2023/12/27 11:28:15;;;;;;;78.82;55.63;;;25.00;54.70;;;;;;5078154;28;20284;-72
2023/12/27 11:30:45;;;;;;;76.32;55.85;;;25.00;53.30;;;;;;5084136;28;20028;-75
2023/12/27 11:33:22;;;;;;;69.70;52.95;;;24.30;52.80;;;;;;5082096;28;20032;-76
2023/12/27 11:35:53;;;;;;;71.47;53.08;;;23.90;55.30;;;;;;5077268;28;20043;-77
2023/12/27 11:38:26;;;;;;;76.55;52.65;;;23.00;55.50;;;;;;5079278;28;20060;-74
2023/12/27 11:40:57;;;;;;;73.00;52.65;;;20.70;59.10;;;;;;5085153;28;20036;-74
2023/12/27 11:43:26;;;;;;;75.78;54.58;;;19.20;63.10;;;;;;5074608;28;20142;-75
2023/12/27 11:46:06;;;;;;;72.72;54.42;;;18.30;65.80;;;;;;5077437;28;20032;-71
2023/12/27 11:48:37;;;;;;;74.97;52.88;;;17.70;67.90;;;;;;5076386;28;20040;-76
2023/12/27 11:51:34;;;;;;;82.80;54.08;;;17.20;69.10;;;;;;5079790;28;20032;-73
2023/12/27 11:54:03;;;;;;;79.82;53.00;;;17.30;69.20;;;;;;5092879;28;20119;-76
2023/12/27 11:56:32;;;;;;;82.35;50.10;;;17.10;70.10;;;;;;5081914;28;20089;-72
2023/12/27 11:59:08;;;;;;;73.32;48.83;;;17.20;70.00;;;;;;5077432;28;20036;-72
2023/12/27 12:01:37;;;;;;;71.10;50.40;;;17.50;69.60;;;;;;5060161;28;20064;-73
2023/12/27 12:04:19;;;;;;;76.90;51.00;;;17.60;69.20;;;;;;5080785;28;20097;-73
2023/12/27 12:07:19;;;;;;;72.65;53.58;;;19.50;68.00;;;;;;5081898;28;20115;-73
2023/12/27 12:09:46;;;;;;;75.57;52.50;;;22.80;61.80;;;;;;5076473;28;20048;-73
2023/12/27 12:12:31;;;;;;;80.38;53.50;;;24.10;55.70;;;;;;5078789;28;20331;-72
2023/12/27 12:14:59;;;;;;;80.20;54.30;;;24.40;54.70;;;;;;5081824;28;20048;-70
2023/12/27 12:17:28;;;;;;;82.55;54.05;;;25.00;53.60;;;;;;5078106;28;20039;-73
2023/12/27 12:19:56;;;;;;;72.35;51.00;;;25.60;52.70;;;;;;5074629;28;20032;-73
2023/12/27 12:22:23;;;;;;;78.88;52.20;;;25.70;52.00;;;;;;5082631;28;20032;-72
2023/12/27 12:24:51;;;;;;;76.72;53.03;;;25.90;51.80;;;;;;5077106;28;20379;-72
2023/12/27 12:27:22;;;;;;;86.72;58.70;;;26.50;51.50;;;;;;5079942;28;20055;-73
2023/12/27 12:29:53;;;;;;;84.43;56.25;;;26.20;51.20;;;;;;5081946;28;20119;-73
2023/12/27 12:32:20;;;;;;;83.28;57.42;;;26.00;51.20;;;;;;5080821;28;20040;-73
2023/12/27 12:34:47;;;;;;;76.05;57.53;;;25.20;52.10;;;;;;5081103;28;20032;-70
2023/12/27 12:37:15;;;;;;;77.88;55.85;;;25.70;51.40;;;;;;5080556;28;20043;-73
2023/12/27 12:39:44;;;;;;;71.70;52.90;;;25.80;51.10;;;;;;5081572;28;20101;-74